createdAt,value
2018-06-05T00:02:23.315Z,97235.00
2018-06-05T00:04:54.975Z,97235.00
2018-06-05T00:07:26.483Z,97232.00
2018-06-05T00:09:59.401Z,97228.00
2018-06-05T00:12:30.982Z,97229.00
2018-06-05T00:15:02.622Z,97227.00
2018-06-05T00:17:34.173Z,97234.00
2018-06-05T00:20:05.866Z,97238.00
2018-06-05T00:22:37.748Z,97237.00
2018-06-05T00:25:09.354Z,97238.00
2018-06-05T00:27:41.004Z,97241.00
2018-06-05T00:30:12.756Z,97238.00
2018-06-05T00:32:44.554Z,97237.00
2018-06-05T00:35:16.335Z,97247.00
2018-06-05T00:37:47.965Z,97243.00
2018-06-05T00:40:19.596Z,97233.00
2018-06-05T00:42:51.269Z,97234.00
2018-06-05T00:45:22.822Z,97237.00
2018-06-05T00:47:54.594Z,97235.00
2018-06-05T00:50:26.376Z,97232.00
2018-06-05T00:52:57.978Z,97229.00
2018-06-05T00:55:29.637Z,97228.00
2018-06-05T00:58:01.189Z,97229.00
2018-06-05T01:00:32.850Z,97229.00
2018-06-05T01:03:05.449Z,97227.00
2018-06-05T01:05:37.240Z,97226.00
2018-06-05T01:08:08.873Z,97225.00
2018-06-05T01:10:40.600Z,97227.00
2018-06-05T01:13:12.194Z,97234.00
2018-06-05T01:15:43.969Z,97228.00
2018-06-05T01:18:15.609Z,97228.00
2018-06-05T01:20:47.328Z,97228.00
2018-06-05T01:23:18.495Z,97230.00
2018-06-05T01:25:50.756Z,97228.00
2018-06-05T01:28:22.454Z,97232.00
2018-06-05T01:30:54.081Z,97235.00
2018-06-05T01:33:25.772Z,97230.00
2018-06-05T01:35:57.401Z,97234.00
2018-06-05T01:38:28.981Z,97237.00
2018-06-05T01:41:00.612Z,97238.00
2018-06-05T01:43:32.353Z,97237.00
2018-06-05T01:46:03.921Z,97243.00
2018-06-05T01:48:35.642Z,97246.00
2018-06-05T01:51:07.214Z,97244.00
2018-06-05T01:53:38.833Z,97243.00
2018-06-05T01:56:10.344Z,97241.00
2018-06-05T01:58:42.088Z,97240.00
2018-06-05T02:01:13.670Z,97245.00
2018-06-05T02:03:45.375Z,97244.00
2018-06-05T02:06:16.957Z,97239.00
2018-06-05T02:08:48.653Z,97243.00
2018-06-05T02:11:20.352Z,97242.00
2018-06-05T02:13:51.965Z,97242.00
2018-06-05T02:16:23.569Z,97251.00
2018-06-05T02:18:55.322Z,97249.00
2018-06-05T02:21:26.889Z,97248.00
2018-06-05T02:23:58.507Z,97246.00
2018-06-05T02:26:30.085Z,97244.00
2018-06-05T02:29:01.607Z,97249.00
2018-06-05T02:31:33.213Z,97248.00
2018-06-05T02:34:05.054Z,97254.00
2018-06-05T02:36:37.034Z,97254.00
2018-06-05T02:39:09.365Z,97256.00
2018-06-05T02:41:40.941Z,97257.00
2018-06-05T02:44:12.574Z,97251.00
2018-06-05T02:46:44.320Z,97252.00
2018-06-05T02:49:15.981Z,97256.00
2018-06-05T02:51:47.685Z,97259.00
2018-06-05T02:54:19.346Z,97260.00
2018-06-05T02:56:51.099Z,97258.00
2018-06-05T02:59:22.842Z,97260.00
2018-06-05T03:01:54.554Z,97266.00
2018-06-05T03:04:26.149Z,97266.00
2018-06-05T03:06:57.825Z,97273.00
2018-06-05T03:09:29.416Z,97280.00
2018-06-05T03:12:01.136Z,97278.00
2018-06-05T03:14:32.828Z,97279.00
2018-06-05T03:17:04.554Z,97281.00
2018-06-05T03:19:36.258Z,97286.00
2018-06-05T03:22:07.963Z,97291.00
2018-06-05T03:24:39.579Z,97290.00
2018-06-05T03:27:11.181Z,97293.00
2018-06-05T03:29:42.792Z,97296.00
2018-06-05T03:32:14.583Z,97297.00
2018-06-05T03:34:46.136Z,97301.00
2018-06-05T03:37:17.997Z,97305.00
2018-06-05T03:39:49.857Z,97308.00
2018-06-05T03:42:21.448Z,97308.00
2018-06-05T03:44:53.130Z,97308.00
2018-06-05T03:47:24.752Z,97311.00
2018-06-05T03:49:56.497Z,97307.00
2018-06-05T03:52:28.077Z,97310.00
2018-06-05T03:54:59.766Z,97315.00
2018-06-05T03:57:31.354Z,97318.00
2018-06-05T04:00:03.136Z,97323.00
2018-06-05T04:02:34.974Z,97327.00
2018-06-05T04:05:06.745Z,97321.00
2018-06-05T04:07:38.290Z,97331.00
2018-06-05T04:10:09.943Z,97327.00
2018-06-05T04:12:41.610Z,97329.00
2018-06-05T04:15:13.184Z,97324.00
2018-06-05T04:17:44.923Z,97332.00
2018-06-05T04:20:16.500Z,97339.00
2018-06-05T04:22:48.232Z,97343.00
2018-06-05T04:25:19.820Z,97337.00
2018-06-05T04:27:51.601Z,97343.00
2018-06-05T04:30:23.396Z,97334.00
2018-06-05T04:32:55.061Z,97339.00
2018-06-05T04:35:26.773Z,97341.00
2018-06-05T04:37:58.410Z,97341.00
2018-06-05T04:40:30.227Z,97342.00
2018-06-05T04:43:01.788Z,97344.00
2018-06-05T04:45:33.445Z,97349.00
2018-06-05T04:48:05.157Z,97345.00
2018-06-05T04:50:36.839Z,97345.00
2018-06-05T04:53:08.659Z,97344.00
2018-06-05T04:55:40.286Z,97342.00
2018-06-05T04:58:11.938Z,97341.00
2018-06-05T05:00:43.593Z,97342.00
2018-06-05T05:03:15.254Z,97340.00
2018-06-05T05:05:46.359Z,97341.00
2018-06-05T05:08:17.949Z,97339.00
2018-06-05T05:10:49.497Z,97342.00
2018-06-05T05:13:21.160Z,97341.00
2018-06-05T05:15:52.708Z,97346.00
2018-06-05T05:18:24.357Z,97347.00
2018-06-05T05:20:55.973Z,97345.00
2018-06-05T05:23:27.679Z,97346.00
2018-06-05T05:25:59.140Z,97351.00
2018-06-05T05:28:30.841Z,97349.00
2018-06-05T05:31:02.476Z,97352.00
2018-06-05T05:33:34.224Z,97350.00
2018-06-05T05:36:06.155Z,97351.00
2018-06-05T05:38:37.749Z,97351.00
2018-06-05T05:41:09.352Z,97349.00
2018-06-05T05:43:41.040Z,97353.00
2018-06-05T05:46:12.630Z,97349.00
2018-06-05T05:48:44.340Z,97356.00
2018-06-05T05:51:15.892Z,97354.00
2018-06-05T05:53:47.479Z,97353.00
2018-06-05T05:56:19.315Z,97353.00
2018-06-05T05:58:51.027Z,97357.00
2018-06-05T06:01:22.651Z,97356.00
2018-06-05T06:03:54.289Z,97359.00
2018-06-05T06:06:25.838Z,97348.00
2018-06-05T06:08:57.550Z,97352.00
2018-06-05T06:11:29.185Z,97348.00
2018-06-05T06:14:00.928Z,97346.00
2018-06-05T06:16:32.569Z,97348.00
2018-06-05T06:19:04.240Z,97343.00
2018-06-05T06:21:35.880Z,97348.00
2018-06-05T06:24:07.536Z,97349.00
2018-06-05T06:26:39.083Z,97349.00
2018-06-05T06:29:10.760Z,97355.00
2018-06-05T06:31:42.455Z,97352.00
2018-06-05T06:34:14.091Z,97358.00
2018-06-05T06:36:45.729Z,97362.00
2018-06-05T06:39:17.485Z,97358.00
2018-06-05T06:41:49.022Z,97359.00
2018-06-05T06:44:20.601Z,97357.00
2018-06-05T06:46:52.246Z,97353.00
2018-06-05T06:49:23.941Z,97354.00
2018-06-05T06:51:55.513Z,97355.00
2018-06-05T06:54:27.269Z,97350.00
2018-06-05T06:56:58.822Z,97354.00
2018-06-05T06:59:30.426Z,97349.00
2018-06-05T07:02:02.070Z,97353.00
2018-06-05T07:04:33.750Z,97349.00
2018-06-05T07:07:05.495Z,97347.00
2018-06-05T07:09:37.239Z,97348.00
2018-06-05T07:12:08.836Z,97346.00
2018-06-05T07:14:40.457Z,97353.00
2018-06-05T07:17:12.123Z,97351.00
2018-06-05T07:19:43.670Z,97355.00
2018-06-05T07:22:15.249Z,97352.00
2018-06-05T07:24:47.023Z,97352.00
2018-06-05T07:27:18.664Z,97353.00
2018-06-05T07:29:50.494Z,97358.00
2018-06-05T07:32:22.084Z,97358.00
2018-06-05T07:34:53.820Z,97357.00
2018-06-05T07:37:25.502Z,97352.00
2018-06-05T07:39:57.123Z,97354.00
2018-06-05T07:42:28.827Z,97350.00
2018-06-05T07:45:00.551Z,97350.00
2018-06-05T07:47:31.669Z,97352.00
2018-06-05T07:50:03.380Z,97354.00
2018-06-05T07:52:35.001Z,97350.00
2018-06-05T07:55:06.659Z,97347.00
2018-06-05T07:57:38.366Z,97342.00
2018-06-05T08:00:10.081Z,97346.00
2018-06-05T08:02:41.725Z,97340.00
2018-06-05T08:05:12.844Z,97342.00
2018-06-05T08:07:44.433Z,97342.00
2018-06-05T08:10:16.120Z,97340.00
2018-06-05T08:12:47.845Z,97337.00
2018-06-05T08:15:19.417Z,97339.00
2018-06-05T08:17:51.056Z,97341.00
2018-06-05T08:20:22.709Z,97338.00
2018-06-05T08:22:56.656Z,97336.00
2018-06-05T08:25:28.385Z,97334.00
2018-06-05T08:28:00.029Z,97333.00
2018-06-05T08:30:31.782Z,97333.00
2018-06-05T08:33:03.456Z,97330.00
2018-06-05T08:35:35.113Z,97330.00
2018-06-05T08:38:06.768Z,97331.00
2018-06-05T08:40:38.593Z,97331.00
2018-06-05T08:43:10.484Z,97331.00
2018-06-05T08:45:42.129Z,97325.00
2018-06-05T08:48:13.713Z,97324.00
2018-06-05T08:50:45.449Z,97320.00
2018-06-05T08:53:17.042Z,97322.00
2018-06-05T08:55:48.746Z,97320.00
2018-06-05T08:58:20.429Z,97320.00
2018-06-05T09:00:51.975Z,97317.00
2018-06-05T09:03:23.549Z,97313.00
2018-06-05T09:05:55.185Z,97313.00
2018-06-05T09:08:26.846Z,97315.00
2018-06-05T09:10:58.480Z,97313.00
2018-06-05T09:13:30.248Z,97311.00
2018-06-05T09:16:02.109Z,97313.00
2018-06-05T09:18:33.658Z,97316.00
2018-06-05T09:21:05.389Z,97310.00
2018-06-05T09:23:37.017Z,97311.00
2018-06-05T09:26:08.677Z,97309.00
2018-06-05T09:28:40.299Z,97310.00
2018-06-05T09:31:11.990Z,97305.00
2018-06-05T09:33:43.645Z,97311.00
2018-06-05T09:36:15.277Z,97306.00
2018-06-05T09:38:46.933Z,97312.00
2018-06-05T09:41:18.790Z,97309.00
2018-06-05T09:43:50.508Z,97309.00
2018-06-05T09:46:22.309Z,97311.00
2018-06-05T09:48:53.950Z,97306.00
2018-06-05T09:51:25.669Z,97303.00
2018-06-05T09:53:57.299Z,97310.00
2018-06-05T09:56:28.956Z,97312.00
2018-06-05T09:59:00.611Z,97307.00
2018-06-05T10:01:32.286Z,97302.00
2018-06-05T10:04:03.897Z,97295.00
2018-06-05T10:06:35.609Z,97297.00
2018-06-05T10:09:08.921Z,97301.00
2018-06-05T10:11:40.627Z,97301.00
2018-06-05T10:14:12.267Z,97307.00
2018-06-05T10:16:44.147Z,97302.00
2018-06-05T10:19:15.788Z,97297.00
2018-06-05T10:21:47.445Z,97297.00
2018-06-05T10:24:19.021Z,97297.00
2018-06-05T10:26:50.853Z,97293.00
2018-06-05T10:29:22.509Z,97289.00
2018-06-05T10:31:54.219Z,97287.00
2018-06-05T10:34:25.778Z,97281.00
2018-06-05T10:36:57.576Z,97277.00
2018-06-05T10:39:29.137Z,97276.00
2018-06-05T10:42:00.857Z,97280.00
2018-06-05T10:44:32.481Z,97279.00
2018-06-05T10:47:04.258Z,97280.00
2018-06-05T10:49:35.892Z,97272.00
2018-06-05T10:52:07.828Z,97277.00
2018-06-05T10:54:39.488Z,97264.00
2018-06-05T10:57:11.298Z,97273.00
2018-06-05T10:59:43.006Z,97267.00
2018-06-05T11:02:14.548Z,97269.00
2018-06-05T11:04:46.373Z,97262.00
2018-06-05T11:07:17.969Z,97267.00
2018-06-05T11:09:49.630Z,97266.00
2018-06-05T11:12:21.280Z,97258.00
2018-06-05T11:14:52.875Z,97259.00
2018-06-05T11:17:24.597Z,97252.00
2018-06-05T11:19:56.181Z,97257.00
2018-06-05T11:22:27.912Z,97250.00
2018-06-05T11:24:59.505Z,97251.00
2018-06-05T11:27:31.281Z,97245.00
2018-06-05T11:30:02.983Z,97249.00
2018-06-05T11:32:34.732Z,97247.00
2018-06-05T11:35:06.502Z,97251.00
2018-06-05T11:37:38.170Z,97248.00
2018-06-05T11:40:09.805Z,97244.00
2018-06-05T11:42:40.934Z,97237.00
2018-06-05T11:45:12.543Z,97248.00
2018-06-05T11:47:44.324Z,97243.00
2018-06-05T11:50:15.972Z,97237.00
2018-06-05T11:52:47.779Z,97235.00
2018-06-05T11:55:19.372Z,97224.00
2018-06-05T11:57:51.019Z,97227.00
2018-06-05T12:00:22.984Z,97226.00
2018-06-05T12:02:54.783Z,97219.00
2018-06-05T12:05:26.408Z,97225.00
2018-06-05T12:07:58.144Z,97220.00
2018-06-05T12:10:29.816Z,97215.00
2018-06-05T12:13:01.451Z,97216.00
2018-06-05T12:15:33.114Z,97207.00
2018-06-05T12:18:04.752Z,97210.00
2018-06-05T12:20:36.344Z,97207.00
2018-06-05T12:23:08.082Z,97206.00
2018-06-05T12:25:39.697Z,97198.00
2018-06-05T12:28:11.461Z,97195.00
2018-06-05T12:30:43.190Z,97194.00
2018-06-05T12:33:15.023Z,97201.00
2018-06-05T12:35:46.589Z,97196.00
2018-06-05T12:38:18.338Z,97192.00
2018-06-05T12:40:49.986Z,97185.00
2018-06-05T12:43:22.471Z,97177.00
2018-06-05T12:45:54.220Z,97178.00
2018-06-05T12:48:25.964Z,97175.00
2018-06-05T12:50:57.533Z,97178.00
2018-06-05T12:53:29.193Z,97177.00
2018-06-05T12:56:00.769Z,97178.00
2018-06-05T12:58:32.320Z,97169.00
2018-06-05T13:01:04.050Z,97163.00
2018-06-05T13:03:35.644Z,97171.00
2018-06-05T13:06:07.464Z,97168.00
2018-06-05T13:08:38.628Z,97162.00
2018-06-05T13:11:10.170Z,97165.00
2018-06-05T13:13:41.824Z,97161.00
2018-06-05T13:16:13.483Z,97160.00
2018-06-05T13:18:45.039Z,97159.00
2018-06-05T13:21:16.795Z,97157.00
2018-06-05T13:23:48.366Z,97158.00
2018-06-05T13:26:20.175Z,97157.00
2018-06-05T13:28:51.808Z,97146.00
2018-06-05T13:31:23.479Z,97152.00
2018-06-05T13:33:55.106Z,97150.00
2018-06-05T13:36:26.725Z,97154.00
2018-06-05T13:38:58.553Z,97155.00
2018-06-05T13:41:30.132Z,97142.00
2018-06-05T13:44:01.765Z,97145.00
2018-06-05T13:46:33.468Z,97144.00
2018-06-05T13:49:05.205Z,97149.00
2018-06-05T13:51:36.763Z,97143.00
2018-06-05T13:54:08.426Z,97144.00
2018-06-05T13:56:40.174Z,97146.00
2018-06-05T13:59:11.843Z,97140.00
2018-06-05T14:01:43.393Z,97136.00
2018-06-05T14:04:14.503Z,97132.00
2018-06-05T14:06:46.086Z,97134.00
2018-06-05T14:09:18.213Z,97137.00
2018-06-05T14:11:49.844Z,97129.00
2018-06-05T14:14:21.598Z,97129.00
2018-06-05T14:16:53.341Z,97129.00
2018-06-05T14:19:25.026Z,97130.00
2018-06-05T14:21:56.703Z,97129.00
2018-06-05T14:24:28.337Z,97127.00
2018-06-05T14:26:59.921Z,97122.00
2018-06-05T14:29:31.620Z,97118.00
2018-06-05T14:32:03.125Z,97114.00
2018-06-05T14:34:34.757Z,97116.00
2018-06-05T14:37:06.489Z,97111.00
2018-06-05T14:39:37.642Z,97107.00
2018-06-05T14:42:09.229Z,97102.00
2018-06-05T14:44:40.994Z,97105.00
2018-06-05T14:47:12.654Z,97108.00
2018-06-05T14:49:44.345Z,97101.00
2018-06-05T14:52:15.964Z,97102.00
2018-06-05T14:54:47.761Z,97098.00
2018-06-05T14:57:19.389Z,97098.00
2018-06-05T14:59:50.977Z,97101.00
2018-06-05T15:02:22.527Z,97097.00
2018-06-05T15:04:54.085Z,97100.00
2018-06-05T15:07:25.598Z,97101.00
2018-06-05T15:09:57.222Z,97104.00
2018-06-05T15:12:28.944Z,97103.00
2018-06-05T15:15:00.533Z,97096.00
2018-06-05T15:17:32.229Z,97093.00
2018-06-05T15:20:03.833Z,97090.00
2018-06-05T15:22:35.491Z,97089.00
2018-06-05T15:25:07.071Z,97092.00
2018-06-05T15:27:38.782Z,97088.00
2018-06-05T15:30:09.864Z,97085.00
2018-06-05T15:32:41.380Z,97087.00
2018-06-05T15:35:12.547Z,97086.00
2018-06-05T15:37:44.149Z,97088.00
2018-06-05T15:40:15.765Z,97092.00
2018-06-05T15:42:47.489Z,97094.00
2018-06-05T15:45:19.193Z,97098.00
2018-06-05T15:47:50.771Z,97101.00
2018-06-05T15:50:22.509Z,97102.00
2018-06-05T15:52:54.233Z,97103.00
2018-06-05T15:55:25.813Z,97100.00
2018-06-05T15:57:57.491Z,97101.00
2018-06-05T16:00:29.129Z,97104.00
2018-06-05T16:03:00.879Z,97100.00
2018-06-05T16:05:32.478Z,97098.00
2018-06-05T16:08:04.125Z,97104.00
2018-06-05T16:10:35.748Z,97104.00
2018-06-05T16:13:07.443Z,97103.00
2018-06-05T16:15:39.230Z,97106.00
2018-06-05T16:18:10.215Z,97109.00
2018-06-05T16:20:41.833Z,97103.00
2018-06-05T16:23:13.346Z,97111.00
2018-06-05T16:25:44.949Z,97116.00
2018-06-05T16:28:16.458Z,97117.00
2018-06-05T16:30:48.165Z,97121.00
2018-06-05T16:33:19.718Z,97125.00
2018-06-05T16:35:51.367Z,97126.00
2018-06-05T16:38:22.905Z,97120.00
2018-06-05T16:40:54.478Z,97127.00
2018-06-05T16:43:25.894Z,97132.00
2018-06-05T16:45:57.481Z,97135.00
2018-06-05T16:48:29.101Z,97137.00
2018-06-05T16:51:00.707Z,97139.00
2018-06-05T16:53:32.412Z,97141.00
2018-06-05T16:56:04.196Z,97143.00
2018-06-05T16:58:35.858Z,97148.00
2018-06-05T17:01:07.445Z,97154.00
2018-06-05T17:03:39.033Z,97156.00
2018-06-05T17:06:10.745Z,97157.00
2018-06-05T17:08:42.401Z,97161.00
2018-06-05T17:11:14.153Z,97161.00
2018-06-05T17:13:45.789Z,97163.00
2018-06-05T17:16:17.529Z,97163.00
2018-06-05T17:18:49.099Z,97169.00
2018-06-05T17:21:20.673Z,97172.00
2018-06-05T17:23:52.281Z,97170.00
2018-06-05T17:26:24.074Z,97173.00
2018-06-05T17:28:55.812Z,97174.00
2018-06-05T17:31:27.400Z,97176.00
2018-06-05T17:33:58.288Z,97178.00
2018-06-05T17:36:29.824Z,97177.00
2018-06-05T17:39:01.615Z,97180.00
2018-06-05T17:41:33.228Z,97181.00
2018-06-05T17:44:05.333Z,97182.00
2018-06-05T17:46:37.181Z,97182.00
2018-06-05T17:49:08.858Z,97184.00
2018-06-05T17:51:40.594Z,97187.00
2018-06-05T17:54:12.268Z,97189.00
2018-06-05T17:56:43.869Z,97189.00
2018-06-05T17:59:15.402Z,97193.00
2018-06-05T18:01:47.185Z,97195.00
2018-06-05T18:04:18.692Z,97196.00
2018-06-05T18:06:50.493Z,97199.00
2018-06-05T18:09:21.997Z,97191.00
2018-06-05T18:11:53.726Z,97195.00
2018-06-05T18:14:25.433Z,97190.00
2018-06-05T18:16:57.105Z,97195.00
2018-06-05T18:19:28.651Z,97188.00
2018-06-05T18:22:00.243Z,97197.00
2018-06-05T18:24:31.857Z,97194.00
2018-06-05T18:27:03.533Z,97201.00
2018-06-05T18:29:34.608Z,97199.00
2018-06-05T18:32:06.337Z,97203.00
2018-06-05T18:34:37.865Z,97200.00
2018-06-05T18:37:09.532Z,97203.00
2018-06-05T18:39:41.292Z,97199.00
2018-06-05T18:42:12.902Z,97205.00
2018-06-05T18:44:44.604Z,97198.00
2018-06-05T18:47:16.274Z,97198.00
2018-06-05T18:49:47.776Z,97208.00
2018-06-05T18:52:19.539Z,97207.00
2018-06-05T18:54:51.127Z,97211.00
2018-06-05T18:57:23.009Z,97213.00
2018-06-05T18:59:54.627Z,97218.00
2018-06-05T19:02:26.377Z,97218.00
2018-06-05T19:04:58.029Z,97221.00
2018-06-05T19:07:29.629Z,97228.00
2018-06-05T19:10:01.272Z,97228.00
2018-06-05T19:12:32.868Z,97234.00
2018-06-05T19:15:04.357Z,97236.00
2018-06-05T19:17:35.979Z,97242.00
2018-06-05T19:20:07.666Z,97248.00
2018-06-05T19:22:39.304Z,97250.00
2018-06-05T19:25:11.005Z,97257.00
2018-06-05T19:27:42.599Z,97258.00
2018-06-05T19:30:14.391Z,97255.00
2018-06-05T19:32:45.984Z,97261.00
2018-06-05T19:35:17.600Z,97270.00
2018-06-05T19:37:49.285Z,97277.00
2018-06-05T19:40:21.014Z,97278.00
2018-06-05T19:42:52.705Z,97285.00
2018-06-05T19:45:24.429Z,97294.00
2018-06-05T19:47:56.137Z,97302.00
2018-06-05T19:50:27.669Z,97300.00
2018-06-05T19:52:59.446Z,97308.00
2018-06-05T19:55:30.978Z,97313.00
2018-06-05T19:58:02.452Z,97322.00
2018-06-05T20:00:34.061Z,97327.00
2018-06-05T20:03:05.915Z,97331.00
2018-06-05T20:05:37.670Z,97332.00
2018-06-05T20:08:09.184Z,97336.00
2018-06-05T20:10:40.927Z,97340.00
2018-06-05T20:13:12.520Z,97344.00
2018-06-05T20:15:44.317Z,97344.00
2018-06-05T20:18:15.820Z,97338.00
2018-06-05T20:20:47.533Z,97345.00
2018-06-05T20:23:19.145Z,97353.00
2018-06-05T20:25:50.830Z,97356.00
2018-06-05T20:28:22.417Z,97359.00
2018-06-05T20:30:54.040Z,97356.00
2018-06-05T20:33:25.664Z,97361.00
2018-06-05T20:35:57.404Z,97371.00
2018-06-05T20:38:28.969Z,97369.00
2018-06-05T20:41:00.573Z,97374.00
2018-06-05T20:43:32.355Z,97379.00
2018-06-05T20:46:04.322Z,97383.00
2018-06-05T20:48:36.020Z,97387.00
2018-06-05T20:51:07.704Z,97384.00
2018-06-05T20:53:39.334Z,97386.00
2018-06-05T20:56:11.046Z,97379.00
2018-06-05T20:58:42.650Z,97382.00
2018-06-05T21:01:14.224Z,97387.00
2018-06-05T21:03:45.932Z,97388.00
2018-06-05T21:06:17.626Z,97391.00
2018-06-05T21:08:49.345Z,97392.00
2018-06-05T21:11:20.987Z,97392.00
2018-06-05T21:13:52.130Z,97398.00
2018-06-05T21:16:23.653Z,97400.00
2018-06-05T21:18:55.273Z,97398.00
2018-06-05T21:21:27.018Z,97399.00
2018-06-05T21:23:58.594Z,97398.00
2018-06-05T21:26:30.168Z,97403.00
2018-06-05T21:29:01.832Z,97404.00
2018-06-05T21:31:33.495Z,97406.00
2018-06-05T21:34:05.279Z,97411.00
2018-06-05T21:36:36.904Z,97410.00
2018-06-05T21:39:10.588Z,97413.00
2018-06-05T21:41:42.189Z,97417.00
2018-06-05T21:44:13.905Z,97418.00
2018-06-05T21:46:45.657Z,97429.00
2018-06-05T21:49:17.316Z,97427.00
2018-06-05T21:51:48.925Z,97432.00
2018-06-05T21:54:20.653Z,97430.00
2018-06-05T21:56:52.237Z,97430.00
2018-06-05T21:59:23.891Z,97428.00
2018-06-05T22:01:55.529Z,97425.00
2018-06-05T22:04:27.105Z,97427.00
2018-06-05T22:06:58.737Z,97427.00
2018-06-05T22:09:30.358Z,97424.00
2018-06-05T22:12:01.942Z,97424.00
2018-06-05T22:14:33.565Z,97423.00
2018-06-05T22:17:05.153Z,97427.00
2018-06-05T22:19:36.855Z,97432.00
2018-06-05T22:22:08.564Z,97428.00
2018-06-05T22:24:40.189Z,97429.00
2018-06-05T22:27:12.011Z,97434.00
2018-06-05T22:29:43.678Z,97430.00
2018-06-05T22:32:15.183Z,97431.00
2018-06-05T22:34:46.889Z,97437.00
2018-06-05T22:37:18.553Z,97435.00
2018-06-05T22:39:50.121Z,97438.00
2018-06-05T22:42:21.820Z,97436.00
2018-06-05T22:44:53.523Z,97433.00
2018-06-05T22:47:25.272Z,97431.00
2018-06-05T22:49:57.160Z,97428.00
2018-06-05T22:52:28.988Z,97421.00
2018-06-05T22:55:00.673Z,97423.00
2018-06-05T22:57:32.401Z,97425.00
2018-06-05T23:00:03.498Z,97423.00
2018-06-05T23:02:35.050Z,97420.00
2018-06-05T23:05:06.876Z,97414.00
2018-06-05T23:07:38.581Z,97421.00
2018-06-05T23:10:10.289Z,97421.00
2018-06-05T23:12:41.954Z,97421.00
2018-06-05T23:15:13.625Z,97419.00
2018-06-05T23:17:45.257Z,97417.00
2018-06-05T23:20:16.965Z,97420.00
2018-06-05T23:22:48.674Z,97419.00
2018-06-05T23:25:20.437Z,97413.00
2018-06-05T23:27:52.083Z,97415.00
2018-06-05T23:30:23.753Z,97421.00
2018-06-05T23:32:55.423Z,97420.00
2018-06-05T23:35:27.469Z,97417.00
2018-06-05T23:37:59.016Z,97412.00
2018-06-05T23:40:30.770Z,97413.00
2018-06-05T23:43:02.376Z,97413.00
2018-06-05T23:45:34.194Z,97417.00
2018-06-05T23:48:05.740Z,97415.00
2018-06-05T23:50:37.438Z,97416.00
2018-06-05T23:53:09.169Z,97414.00
2018-06-05T23:55:40.850Z,97415.00
2018-06-05T23:58:12.637Z,97413.00
